createdAt,value
2022-12-18T00:01:20.445Z,123.43
2022-12-18T00:03:48.048Z,114.55
2022-12-18T00:06:15.963Z,123.70
2022-12-18T00:08:44.330Z,118.93
2022-12-18T00:11:15.103Z,112.28
2022-12-18T00:13:42.548Z,96.97
2022-12-18T00:16:20.898Z,116.65
2022-12-18T00:18:49.059Z,119.60
2022-12-18T00:21:16.201Z,106.03
2022-12-18T00:23:44.918Z,119.55
2022-12-18T00:26:16.364Z,94.07
2022-12-18T00:28:44.137Z,107.30
2022-12-18T00:31:14.040Z,110.88
2022-12-18T00:33:41.566Z,101.95
2022-12-18T00:36:22.020Z,82.72
2022-12-18T00:38:49.240Z,95.82
2022-12-18T00:41:39.101Z,92.35
2022-12-18T00:44:06.833Z,81.32
2022-12-18T00:46:34.179Z,90.25
2022-12-18T00:49:00.895Z,91.85
2022-12-18T00:51:27.639Z,83.00
2022-12-18T00:53:54.344Z,104.70
2022-12-18T00:56:21.054Z,95.97
2022-12-18T00:58:47.805Z,84.97
2022-12-18T01:01:15.023Z,92.85
2022-12-18T01:03:42.318Z,98.45
2022-12-18T01:06:12.633Z,94.82
2022-12-18T01:08:39.999Z,84.00
2022-12-18T01:11:12.702Z,88.50
2022-12-18T01:13:40.755Z,84.85
2022-12-18T01:16:08.186Z,90.03
2022-12-18T01:18:36.024Z,95.95
2022-12-18T01:21:11.364Z,91.03
2022-12-18T01:23:38.995Z,87.85
2022-12-18T01:26:11.331Z,90.88
2022-12-18T01:28:39.040Z,76.93
2022-12-18T01:31:17.468Z,92.75
2022-12-18T01:33:44.665Z,77.40
2022-12-18T01:36:26.215Z,70.63
2022-12-18T01:38:54.079Z,78.53
2022-12-18T01:41:25.146Z,91.88
2022-12-18T01:43:58.258Z,79.60
2022-12-18T01:46:27.724Z,87.05
2022-12-18T01:49:02.077Z,96.68
2022-12-18T01:51:30.805Z,87.20
2022-12-18T01:54:00.235Z,84.68
2022-12-18T01:56:27.218Z,90.05
2022-12-18T01:58:59.443Z,89.55
2022-12-18T02:01:27.272Z,103.15
2022-12-18T02:03:54.481Z,92.68
2022-12-18T02:06:32.882Z,96.95
2022-12-18T02:09:08.684Z,86.55
2022-12-18T02:11:47.735Z,100.78
2022-12-18T02:14:41.349Z,87.25
2022-12-18T02:17:31.051Z,80.07
2022-12-18T02:20:15.331Z,79.65
2022-12-18T02:23:12.429Z,71.95
2022-12-18T02:26:16.174Z,79.63
2022-12-18T02:28:52.251Z,71.63
2022-12-18T02:31:26.677Z,89.63
2022-12-18T02:33:56.090Z,87.68
2022-12-18T02:36:23.681Z,72.85
2022-12-18T02:38:52.693Z,73.90
2022-12-18T02:41:20.581Z,81.10
2022-12-18T02:43:54.212Z,78.30
2022-12-18T02:46:30.593Z,85.60
2022-12-18T02:49:07.617Z,82.25
2022-12-18T02:51:50.054Z,74.13
2022-12-18T02:54:37.024Z,76.93
2022-12-18T02:57:28.414Z,75.28
2022-12-18T03:00:02.303Z,83.88
2022-12-18T03:02:48.601Z,90.82
2022-12-18T03:05:21.044Z,73.93
2022-12-18T03:08:02.660Z,79.78
2022-12-18T03:10:38.709Z,73.70
2022-12-18T03:13:09.812Z,81.20
2022-12-18T03:15:50.359Z,68.60
2022-12-18T03:18:25.874Z,77.78
2022-12-18T03:20:57.318Z,75.55
2022-12-18T03:23:28.747Z,83.28
2022-12-18T03:26:05.965Z,86.85
2022-12-18T03:28:40.456Z,90.40
2022-12-18T03:31:11.418Z,69.32
2022-12-18T03:33:53.362Z,92.05
2022-12-18T03:36:25.427Z,90.22
2022-12-18T03:38:52.591Z,83.63
2022-12-18T03:41:42.006Z,85.00
2022-12-18T03:44:24.527Z,80.80
2022-12-18T03:47:13.531Z,80.32
2022-12-18T03:49:48.873Z,72.32
2022-12-18T03:52:30.147Z,75.55
2022-12-18T03:54:59.422Z,79.72
2022-12-18T03:57:30.673Z,69.00
2022-12-18T04:00:02.596Z,64.38
2022-12-18T04:02:46.519Z,67.95
2022-12-18T04:05:20.348Z,68.22
2022-12-18T04:07:49.794Z,65.72
2022-12-18T04:10:18.838Z,74.07
2022-12-18T04:12:45.991Z,58.83
2022-12-18T04:15:14.784Z,63.03
2022-12-18T04:17:49.600Z,83.72
2022-12-18T04:20:19.152Z,79.57
2022-12-18T04:22:46.556Z,64.18
2022-12-18T04:25:13.986Z,74.72
2022-12-18T04:27:50.978Z,76.72
2022-12-18T04:30:18.180Z,59.03
2022-12-18T04:32:50.507Z,60.10
2022-12-18T04:35:19.625Z,62.45
2022-12-18T04:37:47.104Z,66.18
2022-12-18T04:40:13.990Z,77.95
2022-12-18T04:42:44.125Z,73.15
2022-12-18T04:45:11.193Z,72.95
2022-12-18T04:47:37.916Z,75.90
2022-12-18T04:50:05.101Z,73.78
2022-12-18T04:52:31.979Z,72.50
2022-12-18T04:54:58.699Z,71.93
2022-12-18T04:57:25.395Z,74.82
2022-12-18T04:59:52.074Z,72.82
2022-12-18T05:02:18.907Z,65.07
2022-12-18T05:04:45.679Z,60.50
2022-12-18T05:07:12.370Z,64.47
2022-12-18T05:09:39.073Z,68.90
2022-12-18T05:12:05.993Z,59.22
2022-12-18T05:14:32.773Z,67.20
2022-12-18T05:17:01.179Z,82.55
2022-12-18T05:19:28.105Z,66.70
2022-12-18T05:21:54.838Z,82.53
2022-12-18T05:24:21.654Z,65.32
2022-12-18T05:26:48.385Z,58.75
2022-12-18T05:29:15.109Z,70.10
2022-12-18T05:31:42.770Z,53.97
2022-12-18T05:34:10.393Z,52.28
2022-12-18T05:36:38.127Z,64.65
2022-12-18T05:39:04.923Z,64.07
2022-12-18T05:41:32.945Z,70.90
2022-12-18T05:43:59.994Z,67.72
2022-12-18T05:46:27.146Z,61.38
2022-12-18T05:48:53.924Z,70.65
2022-12-18T05:51:23.322Z,58.90
2022-12-18T05:53:50.164Z,59.45
2022-12-18T05:56:20.750Z,62.75
2022-12-18T05:58:48.291Z,68.13
2022-12-18T06:01:21.763Z,75.18
2022-12-18T06:03:48.608Z,58.33
2022-12-18T06:06:20.955Z,69.03
2022-12-18T06:08:48.208Z,60.75
2022-12-18T06:11:19.320Z,70.15
2022-12-18T06:13:47.346Z,64.60
2022-12-18T06:16:14.343Z,60.45
2022-12-18T06:18:41.076Z,71.15
2022-12-18T06:21:07.826Z,64.30
2022-12-18T06:23:35.073Z,49.05
2022-12-18T06:26:08.950Z,56.40
2022-12-18T06:28:35.765Z,53.75
2022-12-18T06:31:04.571Z,57.88
2022-12-18T06:33:31.543Z,49.22
2022-12-18T06:36:12.239Z,70.35
2022-12-18T06:38:42.340Z,67.32
2022-12-18T06:41:15.903Z,55.08
2022-12-18T06:43:43.921Z,60.53
2022-12-18T06:46:11.691Z,68.85
2022-12-18T06:48:38.841Z,68.70
2022-12-18T06:51:05.773Z,61.20
2022-12-18T06:53:34.137Z,63.20
2022-12-18T06:56:11.075Z,75.57
2022-12-18T06:58:39.133Z,60.25
2022-12-18T07:01:07.911Z,65.30
2022-12-18T07:03:34.974Z,65.05
2022-12-18T07:06:02.196Z,57.47
2022-12-18T07:08:31.789Z,62.63
2022-12-18T07:10:58.875Z,60.08
2022-12-18T07:13:25.777Z,62.13
2022-12-18T07:15:52.438Z,52.58
2022-12-18T07:18:19.150Z,49.30
2022-12-18T07:20:46.037Z,68.90
2022-12-18T07:23:14.479Z,68.45
2022-12-18T07:25:41.570Z,64.38
2022-12-18T07:28:11.663Z,65.45
2022-12-18T07:30:42.401Z,65.10
2022-12-18T07:33:09.178Z,68.03
2022-12-18T07:35:39.044Z,81.65
2022-12-18T07:38:05.967Z,71.63
2022-12-18T07:40:32.670Z,59.63
2022-12-18T07:42:59.383Z,65.80
2022-12-18T07:45:26.112Z,68.57
2022-12-18T07:47:52.863Z,47.85
2022-12-18T07:50:19.649Z,52.35
2022-12-18T07:52:46.319Z,46.47
2022-12-18T07:55:13.158Z,45.83
2022-12-18T07:57:50.456Z,48.17
2022-12-18T08:00:18.967Z,55.50
2022-12-18T08:02:45.708Z,35.65
2022-12-18T08:05:12.548Z,25.38
2022-12-18T08:07:39.278Z,36.65
2022-12-18T08:10:07.213Z,33.15
2022-12-18T08:12:34.024Z,45.28
2022-12-18T08:15:01.087Z,47.00
2022-12-18T08:17:27.776Z,48.80
2022-12-18T08:19:54.511Z,50.25
2022-12-18T08:22:21.181Z,44.60
2022-12-18T08:24:47.893Z,51.20
2022-12-18T08:27:29.218Z,58.75
2022-12-18T08:29:57.677Z,43.63
2022-12-18T08:32:26.030Z,42.30
2022-12-18T08:34:52.834Z,32.15
2022-12-18T08:37:19.727Z,26.60
2022-12-18T08:39:46.519Z,22.40
2022-12-18T08:42:32.036Z,25.30
2022-12-18T08:44:58.753Z,18.90
2022-12-18T08:47:26.934Z,21.80
2022-12-18T08:49:53.968Z,21.50
2022-12-18T08:52:20.680Z,16.58
2022-12-18T08:54:47.440Z,20.63
2022-12-18T08:57:14.137Z,19.63
2022-12-18T08:59:40.814Z,22.35
2022-12-18T09:02:09.249Z,22.55
2022-12-18T09:04:36.120Z,20.95
2022-12-18T09:07:02.862Z,24.85
2022-12-18T09:09:29.650Z,17.52
2022-12-18T09:11:56.354Z,23.48
2022-12-18T09:14:23.035Z,19.20
2022-12-18T09:16:49.888Z,16.38
2022-12-18T09:19:16.622Z,22.98
2022-12-18T09:21:47.711Z,17.85
2022-12-18T09:24:15.670Z,17.95
2022-12-18T09:26:43.364Z,20.33
2022-12-18T09:29:13.608Z,19.47
2022-12-18T09:31:40.577Z,28.33
2022-12-18T09:34:07.793Z,23.17
2022-12-18T09:36:34.563Z,22.25
2022-12-18T09:39:06.293Z,20.17
2022-12-18T09:41:54.522Z,21.30
2022-12-18T09:44:24.131Z,16.83
2022-12-18T09:47:06.030Z,25.45
2022-12-18T09:49:37.180Z,15.43
2022-12-18T09:52:24.166Z,19.25
2022-12-18T09:54:58.791Z,16.58
2022-12-18T09:57:26.533Z,18.20
2022-12-18T09:59:59.427Z,22.00
2022-12-18T10:02:28.613Z,20.20
2022-12-18T10:05:04.932Z,23.75
2022-12-18T10:08:00.719Z,15.82
2022-12-18T10:10:43.375Z,14.80
2022-12-18T10:13:27.842Z,23.88
2022-12-18T10:16:23.324Z,17.35
2022-12-18T10:18:53.151Z,20.60
2022-12-18T10:21:46.753Z,15.48
2022-12-18T10:24:40.064Z,16.30
2022-12-18T10:27:27.260Z,15.55
2022-12-18T10:29:54.988Z,13.70
2022-12-18T10:32:25.897Z,20.67
2022-12-18T10:35:00.147Z,13.77
2022-12-18T10:37:29.987Z,17.65
2022-12-18T10:40:09.133Z,13.35
2022-12-18T10:42:36.034Z,11.00
2022-12-18T10:45:09.132Z,13.13
2022-12-18T10:47:36.061Z,14.68
2022-12-18T10:50:03.924Z,9.63
2022-12-18T10:52:30.938Z,13.60
2022-12-18T10:55:04.147Z,9.27
2022-12-18T10:57:30.874Z,13.55
2022-12-18T10:59:59.627Z,10.40
2022-12-18T11:02:35.728Z,15.35
2022-12-18T11:05:03.869Z,8.60
2022-12-18T11:07:51.683Z,11.45
2022-12-18T11:10:19.898Z,13.15
2022-12-18T11:12:47.209Z,13.63
2022-12-18T11:15:22.008Z,9.38
2022-12-18T11:17:53.132Z,12.85
2022-12-18T11:20:33.336Z,9.97
2022-12-18T11:23:03.710Z,12.25
2022-12-18T11:25:33.108Z,11.38
2022-12-18T11:28:20.492Z,8.85
2022-12-18T11:30:47.529Z,10.95
2022-12-18T11:33:21.652Z,10.85
2022-12-18T11:35:56.009Z,11.88
2022-12-18T11:38:30.476Z,12.57
2022-12-18T11:41:12.365Z,12.73
2022-12-18T11:44:03.254Z,11.23
2022-12-18T11:46:35.417Z,11.90
2022-12-18T11:51:45.892Z,13.25
2022-12-18T11:54:16.628Z,7.82
2022-12-18T11:56:56.410Z,8.95
2022-12-18T11:59:36.605Z,10.10
2022-12-18T12:02:41.632Z,8.70
2022-12-18T12:05:17.512Z,11.73
2022-12-18T12:07:56.305Z,12.50
2022-12-18T12:10:33.246Z,10.35
2022-12-18T12:13:18.564Z,10.60
2022-12-18T12:16:01.248Z,10.45
2022-12-18T12:18:39.004Z,13.68
2022-12-18T12:21:16.052Z,15.55
2022-12-18T12:24:13.238Z,12.38
2022-12-18T12:26:45.203Z,12.27
2022-12-18T12:29:37.438Z,12.23
2022-12-18T12:32:08.554Z,10.82
2022-12-18T12:34:44.034Z,13.98
2022-12-18T12:37:43.722Z,12.40
2022-12-18T12:40:49.263Z,29.15
2022-12-18T12:43:31.747Z,16.00
2022-12-18T12:46:06.141Z,17.45
2022-12-18T12:48:44.708Z,15.70
2022-12-18T12:51:19.304Z,15.18
2022-12-18T12:53:48.289Z,14.13
2022-12-18T12:56:18.867Z,18.00
2022-12-18T12:59:04.370Z,18.25
2022-12-18T13:01:38.420Z,15.75
2022-12-18T13:04:31.836Z,16.33
2022-12-18T13:07:18.279Z,17.00
2022-12-18T13:10:15.497Z,18.58
2022-12-18T13:13:17.361Z,21.58
2022-12-18T13:16:07.920Z,18.98
2022-12-18T13:18:36.048Z,17.23
2022-12-18T13:21:38.041Z,29.50
2022-12-18T13:24:28.617Z,10.02
2022-12-18T13:26:56.138Z,17.02
2022-12-18T13:29:55.244Z,16.27
2022-12-18T13:32:24.514Z,22.15
2022-12-18T13:35:23.299Z,15.45
2022-12-18T13:37:56.139Z,11.02
2022-12-18T13:40:42.224Z,14.95
2022-12-18T13:43:21.308Z,13.88
2022-12-18T13:45:51.007Z,15.80
2022-12-18T13:48:26.236Z,22.40
2022-12-18T13:51:09.529Z,15.05
2022-12-18T13:53:47.479Z,18.58
2022-12-18T13:56:21.906Z,19.38
2022-12-18T13:59:37.510Z,16.38
2022-12-18T14:02:18.079Z,15.73
2022-12-18T14:04:50.205Z,14.30
2022-12-18T14:07:30.593Z,14.35
2022-12-18T14:10:25.883Z,10.90
2022-12-18T14:12:57.796Z,11.15
2022-12-18T14:15:31.999Z,12.07
2022-12-18T14:18:40.765Z,13.30
2022-12-18T14:21:16.553Z,15.73
2022-12-18T14:23:44.060Z,12.70
2022-12-18T14:26:30.271Z,18.17
2022-12-18T14:29:01.910Z,14.60
2022-12-18T14:31:31.289Z,12.75
2022-12-18T14:33:58.316Z,14.73
2022-12-18T14:36:28.172Z,14.05
2022-12-18T14:38:57.060Z,12.77
2022-12-18T14:41:25.482Z,14.23
2022-12-18T14:43:54.856Z,11.40
2022-12-18T14:46:33.805Z,15.00
2022-12-18T14:49:35.152Z,10.43
2022-12-18T14:52:07.157Z,11.93
2022-12-18T14:54:38.106Z,12.90
2022-12-18T14:57:44.258Z,11.60
2022-12-18T15:00:20.289Z,9.25
2022-12-18T15:02:53.765Z,17.25
2022-12-18T15:05:30.292Z,10.30
2022-12-18T15:07:59.612Z,16.42
2022-12-18T15:10:35.781Z,12.38
2022-12-18T15:13:03.926Z,13.23
2022-12-18T15:15:36.953Z,10.90
2022-12-18T15:18:11.220Z,9.85
2022-12-18T15:20:50.484Z,12.13
2022-12-18T15:23:22.622Z,11.48
2022-12-18T15:28:24.902Z,9.98
2022-12-18T15:31:09.784Z,13.38
2022-12-18T15:33:43.168Z,12.70
2022-12-18T15:36:12.479Z,10.43
2022-12-18T15:38:39.230Z,9.55
2022-12-18T15:41:11.556Z,16.38
2022-12-18T15:43:41.352Z,10.63
2022-12-18T15:46:13.799Z,12.85
2022-12-18T15:48:55.412Z,9.98
2022-12-18T15:51:29.944Z,12.00
2022-12-18T15:54:00.024Z,8.07
2022-12-18T15:56:46.147Z,10.27
2022-12-18T15:59:18.770Z,11.75
2022-12-18T16:01:50.531Z,11.57
2022-12-18T16:04:21.526Z,9.60
2022-12-18T16:07:14.008Z,11.10
2022-12-18T16:09:36.547Z,14.38
2022-12-18T16:12:03.903Z,7.72
2022-12-18T16:14:32.159Z,12.18
2022-12-18T16:17:04.649Z,13.60
2022-12-18T16:19:31.509Z,22.45
2022-12-18T16:21:59.409Z,26.30
2022-12-18T16:24:33.156Z,10.70
2022-12-18T16:27:01.336Z,10.02
2022-12-18T16:29:29.630Z,11.45
2022-12-18T16:31:57.866Z,11.57
2022-12-18T16:34:29.770Z,13.48
2022-12-18T16:39:34.021Z,14.65
2022-12-18T16:42:05.626Z,12.25
2022-12-18T16:44:32.973Z,10.98
2022-12-18T16:47:02.776Z,16.40
2022-12-18T16:49:29.812Z,12.90
2022-12-18T16:51:56.647Z,8.55
2022-12-18T16:54:23.631Z,11.80
2022-12-18T16:56:51.601Z,12.73
2022-12-18T16:59:19.122Z,8.38
2022-12-18T17:01:47.226Z,12.20
2022-12-18T17:04:14.929Z,9.48
2022-12-18T17:06:43.674Z,14.13
2022-12-18T17:09:18.318Z,13.70
2022-12-18T17:11:45.096Z,12.93
2022-12-18T17:14:15.630Z,10.55
2022-12-18T17:16:42.386Z,12.90
2022-12-18T17:19:16.619Z,19.38
2022-12-18T17:21:45.712Z,12.65
2022-12-18T17:24:12.517Z,10.80
2022-12-18T17:26:39.319Z,12.93
2022-12-18T17:29:06.386Z,15.85
2022-12-18T17:31:34.409Z,14.98
2022-12-18T17:34:04.542Z,11.05
2022-12-18T17:36:32.361Z,13.27
2022-12-18T17:39:03.225Z,13.57
2022-12-18T17:41:31.011Z,13.65
2022-12-18T17:44:00.231Z,13.23
2022-12-18T17:46:28.898Z,15.43
2022-12-18T17:48:56.495Z,12.55
2022-12-18T17:51:23.286Z,16.15
2022-12-18T17:53:50.490Z,13.15
2022-12-18T17:56:19.533Z,11.70
2022-12-18T17:58:47.997Z,10.10
2022-12-18T18:01:17.221Z,12.93
2022-12-18T18:03:44.703Z,15.63
2022-12-18T18:06:11.847Z,13.05
2022-12-18T18:08:39.059Z,17.80
2022-12-18T18:11:32.075Z,15.98
2022-12-18T18:14:02.313Z,13.20
2022-12-18T18:16:30.243Z,16.40
2022-12-18T18:18:59.096Z,16.10
2022-12-18T18:21:26.092Z,13.73
2022-12-18T18:23:53.179Z,14.63
2022-12-18T18:26:19.984Z,15.82
2022-12-18T18:28:47.080Z,13.88
2022-12-18T18:31:13.837Z,12.90
2022-12-18T18:33:40.874Z,12.63
2022-12-18T18:36:10.258Z,13.93
2022-12-18T18:38:36.983Z,12.77
2022-12-18T18:41:04.938Z,13.25
2022-12-18T18:43:32.139Z,12.98
2022-12-18T18:46:00.872Z,13.07
2022-12-18T18:48:30.838Z,16.55
2022-12-18T18:53:44.762Z,13.68
2022-12-18T18:59:00.760Z,13.43
2022-12-18T19:01:27.819Z,12.60
2022-12-18T19:03:54.732Z,18.30
2022-12-18T19:06:26.813Z,17.63
2022-12-18T19:08:54.767Z,26.73
2022-12-18T19:11:41.699Z,20.55
2022-12-18T19:14:11.400Z,14.30
2022-12-18T19:16:38.532Z,15.02
2022-12-18T19:19:06.472Z,20.52
2022-12-18T19:21:34.265Z,17.20
2022-12-18T19:24:02.777Z,18.27
2022-12-18T19:26:30.110Z,19.58
2022-12-18T19:29:04.711Z,16.95
2022-12-18T19:31:35.993Z,15.82
2022-12-18T19:34:04.830Z,21.38
2022-12-18T19:36:33.179Z,20.38
2022-12-18T19:39:01.540Z,21.17
2022-12-18T19:41:32.034Z,20.50
2022-12-18T19:44:00.028Z,21.80
2022-12-18T19:46:29.012Z,24.85
2022-12-18T19:48:55.741Z,27.67
2022-12-18T19:51:27.125Z,27.38
2022-12-18T19:53:58.450Z,26.13
2022-12-18T19:56:27.606Z,29.23
2022-12-18T19:58:55.026Z,23.88
2022-12-18T20:01:23.470Z,22.83
2022-12-18T20:03:52.456Z,22.15
2022-12-18T20:06:27.388Z,22.88
2022-12-18T20:08:57.619Z,19.15
2022-12-18T20:11:27.512Z,21.58
2022-12-18T20:13:54.247Z,24.77
2022-12-18T20:16:20.943Z,20.83
2022-12-18T20:18:47.911Z,20.77
2022-12-18T20:21:14.926Z,21.77
2022-12-18T20:23:41.980Z,24.55
2022-12-18T20:26:09.125Z,20.20
2022-12-18T20:28:36.085Z,24.45
2022-12-18T20:31:10.608Z,23.70
2022-12-18T20:33:41.649Z,24.75
2022-12-18T20:36:15.662Z,22.13
2022-12-18T20:38:43.714Z,22.00
2022-12-18T20:41:16.300Z,24.15
2022-12-18T20:43:44.110Z,27.00
2022-12-18T20:46:13.524Z,24.25
2022-12-18T20:48:41.216Z,24.70
2022-12-18T20:51:10.526Z,25.75
2022-12-18T20:53:38.691Z,21.20
2022-12-18T20:56:11.119Z,20.35
2022-12-18T20:58:37.965Z,25.77
2022-12-18T21:01:08.361Z,24.88
2022-12-18T21:03:36.547Z,27.17
2022-12-18T21:06:03.858Z,20.48
2022-12-18T21:08:30.712Z,24.92
2022-12-18T21:11:36.073Z,21.85
2022-12-18T21:14:05.170Z,24.27
2022-12-18T21:16:32.330Z,28.35
2022-12-18T21:18:59.207Z,24.08
2022-12-18T21:21:26.875Z,22.55
2022-12-18T21:23:54.288Z,22.85
2022-12-18T21:26:26.202Z,34.95
2022-12-18T21:31:23.395Z,32.95
2022-12-18T21:33:50.492Z,31.73
2022-12-18T21:36:18.937Z,29.15
2022-12-18T21:38:45.829Z,27.75
2022-12-18T21:41:35.322Z,33.25
2022-12-18T21:44:05.663Z,24.10
2022-12-18T21:46:40.678Z,24.88
2022-12-18T21:49:09.174Z,28.15
2022-12-18T21:51:36.718Z,26.73
2022-12-18T21:54:04.007Z,31.48
2022-12-18T21:56:50.968Z,29.02
2022-12-18T21:59:23.898Z,27.38
2022-12-18T22:01:52.077Z,29.63
2022-12-18T22:04:20.303Z,30.88
2022-12-18T22:06:48.833Z,27.23
2022-12-18T22:09:17.982Z,25.40
2022-12-18T22:11:45.515Z,31.30
2022-12-18T22:14:13.608Z,26.85
2022-12-18T22:16:40.894Z,29.83
2022-12-18T22:19:08.350Z,26.30
2022-12-18T22:21:38.298Z,24.40
2022-12-18T22:24:08.031Z,28.67
2022-12-18T22:26:40.203Z,29.85
2022-12-18T22:29:28.381Z,26.33
2022-12-18T22:31:56.856Z,30.90
2022-12-18T22:34:23.625Z,23.67
2022-12-18T22:36:50.838Z,26.40
2022-12-18T22:39:19.559Z,28.90
2022-12-18T22:41:46.469Z,29.52
2022-12-18T22:44:13.731Z,24.45
2022-12-18T22:46:47.209Z,29.92
2022-12-18T22:49:20.385Z,28.02
2022-12-18T22:51:48.137Z,34.75
2022-12-18T22:54:15.318Z,27.65
2022-12-18T22:56:43.394Z,32.13
2022-12-18T22:59:19.595Z,25.52
2022-12-18T23:01:47.191Z,28.13
2022-12-18T23:04:15.339Z,27.67
2022-12-18T23:06:43.270Z,26.88
2022-12-18T23:09:16.526Z,25.02
2022-12-18T23:11:43.998Z,26.98
2022-12-18T23:14:11.127Z,34.15
2022-12-18T23:16:37.886Z,32.75
2022-12-18T23:19:05.671Z,25.38
2022-12-18T23:21:32.368Z,29.63
2022-12-18T23:24:00.738Z,37.80
2022-12-18T23:26:27.701Z,36.72
2022-12-18T23:28:57.897Z,28.35
2022-12-18T23:31:27.997Z,29.85
2022-12-18T23:33:57.168Z,35.10
2022-12-18T23:36:24.957Z,26.90
2022-12-18T23:38:54.681Z,28.42
2022-12-18T23:41:23.799Z,26.13
2022-12-18T23:43:51.141Z,28.35
2022-12-18T23:46:19.160Z,26.60
2022-12-18T23:48:46.246Z,27.17
2022-12-18T23:51:14.195Z,33.03
2022-12-18T23:53:41.191Z,28.15
2022-12-18T23:56:09.714Z,27.83
2022-12-18T23:58:37.794Z,34.38
